Lincoln, NE

5:44 PM CST on February 05, 2016 (GMT -0600)
Capitol Beach | | Change Station
CLOSE
Current Station
Personal Weather Station
Location: Lincoln, NE
Elevation: 1134 ft
Nearby Weather Stations

Elev 1134 ft 40.82 °N, 96.73 °W | Updated 30 seconds ago

Overcast
Overcast
35.6 °F
Feels Like 32 °F
N
4.0
Wind Variable Wind from WNW
Gusts 8.0 mph

Today
High -- | Low -- °F
--% Chance of Precip.
Yesterday
High -- | Low -- °F
Precip. -- in
Pressure 30.30 in
Visibility 10.0 miles
Clouds Few 7500 ft
Overcast 10000 ft
Windchill 32 °F
Dew Point 28 °F
Humidity 73%
Rainfall 0.00 in
Snow Depth Not available.
7:33 AM 5:49 PM
Waning Crescent, 9% visible
METAR KLNK 052254Z 23007KT 10SM FEW075 OVC100 01/M02 A3025 RMK AO2 SLP259 T00111017
Pressure 30.30 in
Visibility 10.0 miles
Clouds Few 7500 ft
Overcast 10000 ft
Windchill 32 °F
Dew Point 28 °F
Humidity 73%
Rainfall 0.00 in
Snow Depth Not available.
7:33 AM 5:49 PM
Waning Crescent, 9% visible
METAR KLNK 052254Z 23007KT 10SM FEW075 OVC100 01/M02 A3025 RMK AO2 SLP259 T00111017

10-Day Weather Forecast

Almanac

Astronomy

Feb. 05, 2016 Rise Set
Actual Time
Civil Twilight
Nautical Twilight
Astronomical Twilight
Moon
Length of Visible Light
Length of Day
Tomorrow will be .
, % of the Moon is Illuminated

Today's Extremes

State Highs State Lows

Community

WunderPhotos

Upload Photos

1,890,880 photos uploaded!

WunderBlog® & News

Nearby

Air Quality

  Air Quality AQ Index Pollutant
Not available.

Snow Depth

Station Depth Elevation

Earthquake Activity

City Distance Mag. Time & Date
Minimum magnitude displayed is 2.5.

Coastal Water Temperatures

Place Temperature

Stations

Nearby Weather Stations

Station Location Temp. Windchill Dew Point Humidity Wind Precip. Elev Updated Type
                   

Watches & Warnings

There are currently no watches in effect.